Terminal Aerodrome Forecast
Issued by NWS

Home | Current Version | Previous Version | Text Only | Print | Product List | Glossary On
Versions: 1 2 3 4 5 6 7 8 9 10 11 12 13 14 15 16 17
000
FTUS45 KRIW 240540
TAFBPI
TAF
KBPI 240540Z 2406/2506 VRB05KT 2SM -SN BR SCT015 OVC025
      TEMPO 2406/2410 3/4SM -SN
     FM241200 VRB05KT 4SM -SN BR SCT015 OVC020
     FM250300 VRB05KT 6SM -SN OVC030=

USA.gov is the U.S. government's official web portal to all federal, state and local government web resources and services.